Time;durP1;ratioP1;P1;durP2;ratioP2;P2;SDS_P1;SDS_P2;PMS_P1;PMS_P2;Temp;Humidity;BMP_temperature;BMP_pressure;BME280_temperature;BME280_humidity;BME280_pressure;Samples;Min_cycle;Max_cycle;Signal;HPM_P1;HPM_P2
2023/07/29 00:00:47;;;;;;;4.60;2.20;;;;;;;16.96;100.00;98449.80;109367;1253;72879;-68
2023/07/29 00:03:15;;;;;;;2.60;2.20;;;;;;;16.94;100.00;98446.90;109363;1253;60435;-68
2023/07/29 00:05:42;;;;;;;2.50;2.10;;;;;;;16.93;100.00;98447.42;109455;1252;59289;-68
2023/07/29 00:08:10;;;;;;;3.10;2.10;;;;;;;16.93;100.00;98449.25;109375;1254;74746;-68
2023/07/29 00:10:37;;;;;;;2.50;2.30;;;;;;;16.93;100.00;98448.13;109399;1253;70032;-68
2023/07/29 00:13:05;;;;;;;3.40;2.30;;;;;;;16.93;100.00;98443.55;109400;1252;72694;-68
2023/07/29 00:15:32;;;;;;;3.20;2.50;;;;;;;16.93;100.00;98439.73;109348;1253;61779;-68
2023/07/29 00:18:00;;;;;;;3.40;2.60;;;;;;;16.93;100.00;98437.48;109401;1253;60027;-68
2023/07/29 00:20:27;;;;;;;2.80;1.80;;;;;;;16.92;100.00;98437.15;109464;1252;74624;-68
2023/07/29 00:22:54;;;;;;;3.30;2.20;;;;;;;16.92;100.00;98436.86;109419;1252;67627;-68
2023/07/29 00:25:22;;;;;;;2.30;2.10;;;;;;;16.92;100.00;98432.79;109477;1252;73211;-68
2023/07/29 00:27:49;;;;;;;2.40;2.20;;;;;;;16.92;100.00;98430.52;109451;1252;61714;-67
2023/07/29 00:30:17;;;;;;;3.10;2.50;;;;;;;16.93;100.00;98431.19;109416;1253;58895;-68
2023/07/29 00:32:44;;;;;;;2.60;2.40;;;;;;;16.93;100.00;98430.48;109494;1252;73335;-68
2023/07/29 00:35:12;;;;;;;2.20;2.00;;;;;;;16.93;100.00;98427.10;109533;1252;66703;-68
2023/07/29 00:37:39;;;;;;;3.40;2.30;;;;;;;16.93;100.00;98430.19;109333;1253;72761;-68
2023/07/29 00:40:15;;;;;;;2.40;2.20;;;;;;;16.93;100.00;98435.61;109434;1253;61672;-68
2023/07/29 00:42:43;;;;;;;2.10;1.90;;;;;;;16.93;100.00;98434.30;109482;1253;59372;-68
2023/07/29 00:45:10;;;;;;;2.40;2.20;;;;;;;16.93;100.00;98432.21;109302;1253;74627;-68
2023/07/29 00:47:38;;;;;;;3.20;2.80;;;;;;;16.93;100.00;98431.80;109339;1253;67638;-68
2023/07/29 00:50:06;;;;;;;3.10;2.50;;;;;;;16.93;100.00;98428.41;109497;1252;71867;-68
2023/07/29 00:52:33;;;;;;;2.00;1.90;;;;;;;16.93;100.00;98431.27;109216;1253;61696;-68
2023/07/29 00:55:01;;;;;;;2.50;2.30;;;;;;;16.93;100.00;98427.67;109362;1253;58868;-68
2023/07/29 00:57:30;;;;;;;2.20;2.00;;;;;;;16.95;100.00;98431.18;109371;1253;73925;-68
2023/07/29 00:59:57;;;;;;;3.80;2.20;;;;;;;16.95;100.00;98431.88;109381;1253;66599;-68
2023/07/29 01:02:26;;;;;;;5.30;2.40;;;;;;;16.95;100.00;98433.48;109146;1253;72751;-68
2023/07/29 01:04:57;;;;;;;2.80;2.20;;;;;;;16.96;100.00;98432.63;109204;1255;60387;-68
2023/07/29 01:07:44;;;;;;;2.80;2.60;;;;;;;16.96;100.00;98433.67;109154;1253;59843;-68
2023/07/29 01:10:29;;;;;;;3.40;2.70;;;;;;;16.94;100.00;98434.88;109479;1252;74743;-68
2023/07/29 01:12:59;;;;;;;3.60;2.60;;;;;;;16.90;100.00;98431.99;109339;1253;67912;-68
2023/07/29 01:15:38;;;;;;;3.20;2.10;;;;;;;16.87;100.00;98433.59;109288;1254;73199;-68
2023/07/29 01:18:07;;;;;;;3.70;2.40;;;;;;;16.84;100.00;98427.13;109256;1254;60858;-68
2023/07/29 01:20:37;;;;;;;2.50;2.30;;;;;;;16.82;100.00;98432.03;109236;1252;59358;-68
2023/07/29 01:23:05;;;;;;;2.30;2.10;;;;;;;16.79;100.00;98431.42;109362;1253;74686;-68
2023/07/29 01:25:34;;;;;;;2.20;2.00;;;;;;;16.78;100.00;98435.16;109387;1253;67956;-68
2023/07/29 01:28:02;;;;;;;2.10;2.00;;;;;;;16.77;100.00;98437.77;109403;1253;71410;-68
2023/07/29 01:30:32;;;;;;;3.30;2.60;;;;;;;16.77;100.00;98436.82;109268;1253;60435;-68
2023/07/29 01:33:16;;;;;;;3.00;2.10;;;;;;;16.79;100.00;98436.52;109408;1253;60044;-68
2023/07/29 01:35:49;;;;;;;3.40;2.20;;;;;;;16.81;100.00;98436.37;109195;1253;74952;-68
2023/07/29 01:38:21;;;;;;;2.20;2.00;;;;;;;16.82;100.00;98435.73;109203;1252;67805;-68
2023/07/29 01:40:48;;;;;;;2.00;1.90;;;;;;;16.82;100.00;98437.71;109332;1252;72636;-68
2023/07/29 01:43:17;;;;;;;3.10;2.40;;;;;;;16.82;100.00;98433.95;109267;1253;61708;-69
2023/07/29 01:45:45;;;;;;;5.10;2.40;;;;;;;16.83;100.00;98441.55;109356;1253;59211;-68
2023/07/29 01:48:12;;;;;;;4.10;2.10;;;;;;;16.85;100.00;98441.42;109400;1255;73428;-68
2023/07/29 01:50:39;;;;;;;2.80;2.00;;;;;;;16.86;100.00;98441.15;109307;1253;68050;-68
2023/07/29 01:53:07;;;;;;;2.40;2.20;;;;;;;16.89;100.00;98438.63;109376;1253;71377;-68
2023/07/29 01:55:34;;;;;;;2.40;2.20;;;;;;;16.91;100.00;98441.52;109179;1254;60455;-68
2023/07/29 01:58:02;;;;;;;3.00;2.30;;;;;;;16.93;100.00;98438.45;109267;1254;58837;-68
2023/07/29 02:00:31;;;;;;;3.10;2.20;;;;;;;16.95;100.00;98440.84;109314;1252;73430;-68
2023/07/29 02:02:58;;;;;;;3.00;2.20;;;;;;;16.96;100.00;98439.76;109485;1252;68142;-68
2023/07/29 02:05:25;;;;;;;3.10;2.00;;;;;;;16.98;100.00;98443.33;109377;1253;70789;-69
2023/07/29 02:07:53;;;;;;;2.40;2.20;;;;;;;16.98;100.00;98443.12;109241;1254;60425;-69
2023/07/29 02:10:20;;;;;;;2.10;1.90;;;;;;;16.98;100.00;98446.34;109388;1253;58829;-68
2023/07/29 02:12:47;;;;;;;2.90;2.10;;;;;;;16.98;100.00;98446.34;109336;1252;73432;-68
2023/07/29 02:15:15;;;;;;;2.70;1.90;;;;;;;16.98;100.00;98443.73;109479;1252;67871;-68
2023/07/29 02:17:42;;;;;;;2.50;2.10;;;;;;;16.99;100.00;98441.86;109412;1253;72898;-69
2023/07/29 02:20:10;;;;;;;2.60;2.30;;;;;;;16.99;100.00;98449.06;109307;1254;60409;-68
2023/07/29 02:22:38;;;;;;;2.80;2.00;;;;;;;16.97;100.00;98443.58;109292;1253;58884;-68
2023/07/29 02:25:05;;;;;;;2.60;2.40;;;;;;;16.96;100.00;98445.52;109176;1255;74594;-68
2023/07/29 02:27:33;;;;;;;2.40;2.20;;;;;;;16.96;100.00;98445.55;109411;1253;68428;-69
2023/07/29 02:30:01;;;;;;;2.60;2.40;;;;;;;16.96;100.00;98448.90;109488;1252;71430;-68
2023/07/29 02:32:28;;;;;;;2.90;2.10;;;;;;;16.96;100.00;98444.20;109331;1253;60394;-69
2023/07/29 02:34:56;;;;;;;3.90;2.10;;;;;;;16.94;100.00;98444.06;109416;1253;59212;-69
2023/07/29 02:37:23;;;;;;;3.70;1.90;;;;;;;16.93;100.00;98449.04;109325;1253;73452;-69
2023/07/29 02:39:50;;;;;;;4.60;2.30;;;;;;;16.91;100.00;98454.16;109392;1253;68571;-68
2023/07/29 02:42:18;;;;;;;2.50;2.20;;;;;;;16.90;100.00;98454.39;109345;1253;72692;-69
2023/07/29 02:44:45;;;;;;;2.40;2.20;;;;;;;16.90;100.00;98452.23;109479;1252;60569;-68
2023/07/29 02:47:12;;;;;;;3.00;2.20;;;;;;;16.91;100.00;98452.10;109413;1253;58902;-68
2023/07/29 02:49:40;;;;;;;3.60;2.20;;;;;;;16.92;100.00;98455.14;109340;1253;74653;-68
2023/07/29 02:52:07;;;;;;;2.50;2.20;;;;;;;16.92;100.00;98457.72;109347;1253;67901;-69
2023/07/29 02:54:35;;;;;;;2.60;2.40;;;;;;;16.92;100.00;98459.21;109365;1253;72695;-68
2023/07/29 02:57:02;;;;;;;2.70;2.50;;;;;;;16.91;100.00;98456.19;109285;1254;60392;-68
2023/07/29 02:59:30;;;;;;;5.90;3.00;;;;;;;16.88;100.00;98462.52;109398;1253;58987;-68
2023/07/29 03:01:57;;;;;;;2.50;2.30;;;;;;;16.87;100.00;98460.40;109282;1256;74646;-68
2023/07/29 03:04:25;;;;;;;5.80;2.30;;;;;;;16.86;100.00;98459.85;109361;1252;67855;-68
2023/07/29 03:06:52;;;;;;;2.70;2.30;;;;;;;16.85;100.00;98462.13;109357;1254;71396;-68
2023/07/29 03:09:19;;;;;;;2.50;2.30;;;;;;;16.83;100.00;98461.50;109307;1252;59999;-68
2023/07/29 03:11:47;;;;;;;2.50;2.30;;;;;;;16.84;100.00;98462.89;109432;1253;59003;-68
2023/07/29 03:14:14;;;;;;;2.80;2.50;;;;;;;16.85;100.00;98468.61;109426;1255;73397;-68
2023/07/29 03:16:42;;;;;;;2.80;2.60;;;;;;;16.89;100.00;98468.79;109466;1252;67956;-68
2023/07/29 03:19:10;;;;;;;3.40;2.20;;;;;;;16.96;100.00;98463.23;109246;1254;72743;-68
2023/07/29 03:21:38;;;;;;;2.30;2.10;;;;;;;17.08;100.00;98465.44;109306;1253;61684;-67
2023/07/29 03:24:06;;;;;;;2.70;2.30;;;;;;;17.24;100.00;98468.99;109278;1253;58873;-68
2023/07/29 03:26:34;;;;;;;2.60;2.40;;;;;;;17.41;100.00;98465.00;109207;1253;73006;-68
2023/07/29 03:29:02;;;;;;;2.90;2.30;;;;;;;17.60;100.00;98464.02;109404;1253;67916;-68
2023/07/29 03:31:29;;;;;;;4.60;2.80;;;;;;;17.81;100.00;98466.44;109416;1253;70949;-68
2023/07/29 03:33:57;;;;;;;5.20;2.70;;;;;;;18.02;100.00;98461.67;109431;1252;60362;-68
2023/07/29 03:36:25;;;;;;;3.00;2.60;;;;;;;18.22;100.00;98462.40;109232;1253;58868;-68
2023/07/29 03:38:53;;;;;;;3.70;2.40;;;;;;;18.40;100.00;98456.73;109474;1252;73464;-68
2023/07/29 03:41:20;;;;;;;2.40;2.30;;;;;;;18.61;100.00;98454.88;109474;1253;68003;-66
2023/07/29 03:43:47;;;;;;;2.90;2.60;;;;;;;18.80;100.00;98455.11;109438;1254;72713;-67
2023/07/29 03:46:19;;;;;;;3.90;2.40;;;;;;;19.02;100.00;98453.70;109257;1253;61080;-69
2023/07/29 03:48:47;;;;;;;3.40;2.80;;;;;;;19.26;100.00;98454.02;109157;1252;59246;-68
2023/07/29 03:51:15;;;;;;;2.90;2.60;;;;;;;19.44;100.00;98457.52;109137;1253;73818;-68
2023/07/29 03:53:42;;;;;;;4.10;2.50;;;;;;;19.50;100.00;98461.09;109420;1253;67529;-68
2023/07/29 03:56:09;;;;;;;3.30;3.00;;;;;;;19.43;100.00;98460.58;109364;1253;72885;-67
2023/07/29 03:58:37;;;;;;;3.90;3.10;;;;;;;19.28;100.00;98463.92;109500;1252;60064;-67
2023/07/29 04:01:04;;;;;;;3.50;3.20;;;;;;;19.14;100.00;98465.55;109420;1253;60240;-69
2023/07/29 04:03:33;;;;;;;3.20;2.90;;;;;;;19.00;100.00;98469.35;109296;1252;74761;-69
2023/07/29 04:06:01;;;;;;;4.50;3.00;;;;;;;18.91;100.00;98468.47;109437;1253;66790;-69
2023/07/29 04:08:28;;;;;;;2.80;2.60;;;;;;;18.86;100.00;98471.52;109274;1254;71369;-69
2023/07/29 04:10:56;;;;;;;3.30;2.70;;;;;;;18.82;100.00;98472.27;109442;1253;61672;-69
2023/07/29 04:13:23;;;;;;;4.70;2.80;;;;;;;18.77;100.00;98478.30;109259;1253;59371;-68
2023/07/29 04:15:50;;;;;;;3.00;2.70;;;;;;;18.75;100.00;98473.83;109315;1252;76045;-69
2023/07/29 04:18:18;;;;;;;2.90;2.60;;;;;;;18.73;100.00;98475.80;109315;1253;66602;-69
2023/07/29 04:20:45;;;;;;;3.00;2.70;;;;;;;18.71;100.00;98477.29;109402;1254;71369;-68
2023/07/29 04:23:13;;;;;;;3.20;2.50;;;;;;;18.74;100.00;98481.90;109388;1254;60414;-68
2023/07/29 04:25:40;;;;;;;4.20;2.90;;;;;;;18.77;100.00;98482.98;109230;1253;60560;-69
2023/07/29 04:28:08;;;;;;;2.70;2.50;;;;;;;18.77;100.00;98487.77;109441;1253;73798;-69
2023/07/29 04:30:35;;;;;;;2.80;2.50;;;;;;;18.78;100.00;98490.98;109389;1253;67836;-69
2023/07/29 04:33:03;;;;;;;2.40;2.30;;;;;;;18.81;100.00;98488.95;109361;1252;73193;-69
2023/07/29 04:35:30;;;;;;;2.60;2.30;;;;;;;18.85;100.00;98486.71;109474;1254;60430;-68
2023/07/29 04:37:57;;;;;;;2.80;2.40;;;;;;;18.85;100.00;98490.48;109383;1253;60088;-68
2023/07/29 04:40:25;;;;;;;2.70;2.50;;;;;;;18.84;100.00;98495.60;109383;1253;74624;-68
2023/07/29 04:42:52;;;;;;;2.50;2.30;;;;;;;18.83;100.00;98496.16;109461;1253;67580;-67
2023/07/29 04:45:20;;;;;;;2.90;2.20;;;;;;;18.82;100.00;98496.27;109360;1253;72453;-68
2023/07/29 04:47:47;;;;;;;2.30;2.10;;;;;;;18.82;100.00;98503.69;109497;1254;60370;-67
2023/07/29 04:50:15;;;;;;;4.10;2.70;;;;;;;18.83;100.00;98505.21;109528;1253;59310;-67
2023/07/29 04:52:42;;;;;;;2.80;2.60;;;;;;;18.86;100.00;98511.67;109367;1255;74593;-68
2023/07/29 04:55:10;;;;;;;4.70;2.70;;;;;;;18.90;100.00;98515.34;109287;1253;67876;-68
2023/07/29 04:57:37;;;;;;;4.30;2.90;;;;;;;18.93;100.00;98514.30;109270;1253;72658;-68
2023/07/29 05:00:05;;;;;;;3.00;2.70;;;;;;;18.94;100.00;98518.59;109394;1252;60418;-68
2023/07/29 05:02:35;;;;;;;2.80;2.30;;;;;;;18.94;100.00;98517.77;109388;1253;62104;-68
2023/07/29 05:05:03;;;;;;;3.50;2.70;;;;;;;18.97;100.00;98521.75;109432;1253;74675;-68
2023/07/29 05:07:31;;;;;;;3.00;2.70;;;;;;;19.01;100.00;98525.17;109513;1253;67888;-68
2023/07/29 05:09:58;;;;;;;2.50;2.30;;;;;;;19.04;100.00;98526.23;109366;1254;71384;-67
2023/07/29 05:12:26;;;;;;;4.70;2.90;;;;;;;19.08;100.00;98527.21;109439;1253;60453;-68
2023/07/29 05:14:53;;;;;;;3.60;2.80;;;;;;;19.13;100.00;98528.34;109251;1252;60037;-68
2023/07/29 05:17:21;;;;;;;2.50;2.30;;;;;;;19.15;100.00;98528.16;109196;1252;74736;-68
2023/07/29 05:19:49;;;;;;;4.80;3.00;;;;;;;19.17;100.00;98528.64;109434;1253;67472;-68
2023/07/29 05:22:16;;;;;;;3.50;2.70;;;;;;;19.22;100.00;98530.96;109292;1253;72450;-67
2023/07/29 05:24:44;;;;;;;3.50;2.70;;;;;;;19.24;100.00;98530.18;109417;1254;59033;-68
2023/07/29 05:27:11;;;;;;;4.90;2.50;;;;;;;19.25;100.00;98536.52;109254;1253;60112;-68
2023/07/29 05:29:38;;;;;;;3.60;2.70;;;;;;;19.27;100.00;98542.47;109249;1253;74605;-68
2023/07/29 05:32:06;;;;;;;3.00;2.70;;;;;;;19.29;100.00;98538.45;109480;1253;67525;-68
2023/07/29 05:34:33;;;;;;;4.30;3.00;;;;;;;19.28;100.00;98538.55;109480;1253;71443;-68
2023/07/29 05:37:01;;;;;;;2.90;2.70;;;;;;;19.29;100.00;98537.42;109243;1254;60437;-69
2023/07/29 05:39:29;;;;;;;3.30;2.50;;;;;;;19.31;100.00;98535.68;109262;1253;59255;-69
2023/07/29 05:41:56;;;;;;;3.50;3.10;;;;;;;19.39;100.00;98536.08;109467;1253;74677;-68
2023/07/29 05:44:24;;;;;;;4.90;3.60;;;;;;;19.49;100.00;98535.95;109380;1253;68108;-68
2023/07/29 05:46:51;;;;;;;3.50;2.50;;;;;;;19.59;100.00;98535.15;109262;1253;72710;-68
2023/07/29 05:49:19;;;;;;;4.30;2.30;;;;;;;19.71;100.00;98536.50;109411;1253;61770;-68
2023/07/29 05:51:46;;;;;;;4.20;2.70;;;;;;;19.82;100.00;98541.27;109279;1253;60042;-68
2023/07/29 05:54:14;;;;;;;4.80;2.60;;;;;;;19.90;100.00;98540.40;109268;1256;73008;-68
2023/07/29 05:56:41;;;;;;;3.10;2.80;;;;;;;19.96;100.00;98543.54;109286;1252;67520;-68
2023/07/29 05:59:09;;;;;;;3.90;3.20;;;;;;;20.00;100.00;98541.27;109285;1253;71484;-68
2023/07/29 06:01:36;;;;;;;3.40;3.10;;;;;;;20.03;100.00;98539.84;109474;1253;60608;-68
2023/07/29 06:04:03;;;;;;;5.50;3.30;;;;;;;20.05;100.00;98542.08;109382;1252;60114;-69
2023/07/29 06:06:31;;;;;;;2.50;2.30;;;;;;;20.06;100.00;98544.73;109293;1252;77053;-69
2023/07/29 06:08:59;;;;;;;4.40;2.90;;;;;;;20.08;100.00;98547.67;109352;1253;67548;-68
2023/07/29 06:11:26;;;;;;;3.10;2.90;;;;;;;20.09;100.00;98549.41;109252;1253;72081;-68
2023/07/29 06:13:54;;;;;;;4.00;2.70;;;;;;;20.10;100.00;98550.67;109429;1253;61674;-69
2023/07/29 06:16:21;;;;;;;3.90;3.10;;;;;;;20.10;100.00;98550.98;109504;1253;60513;-68
2023/07/29 06:18:49;;;;;;;3.10;2.80;;;;;;;20.07;100.00;98555.00;109291;1253;74614;-67
2023/07/29 06:21:17;;;;;;;4.60;3.40;;;;;;;20.05;100.00;98560.23;109533;1253;67561;-66
2023/07/29 06:23:45;;;;;;;5.80;3.60;;;;;;;20.03;100.00;98562.89;109487;1253;73195;-67
2023/07/29 06:26:12;;;;;;;3.90;3.60;;;;;;;19.97;100.00;98562.65;109351;1253;61708;-68
2023/07/29 06:28:40;;;;;;;5.50;5.00;;;;;;;19.95;100.00;98564.09;109334;1253;59937;-67
2023/07/29 06:31:07;;;;;;;5.40;4.80;;;;;;;19.95;100.00;98560.11;109437;1252;74730;-68
2023/07/29 06:33:35;;;;;;;5.70;4.30;;;;;;;19.98;100.00;98566.77;109415;1256;67551;-68
2023/07/29 06:36:02;;;;;;;4.90;4.10;;;;;;;19.95;100.00;98564.21;109524;1252;71976;-68
2023/07/29 06:38:30;;;;;;;4.40;4.00;;;;;;;19.97;100.00;98564.93;109462;1252;60442;-68
2023/07/29 06:40:57;;;;;;;5.00;4.40;;;;;;;20.02;100.00;98567.73;109471;1252;58897;-68
2023/07/29 06:43:24;;;;;;;8.00;5.40;;;;;;;20.11;100.00;98569.90;109411;1252;75093;-67
2023/07/29 06:45:52;;;;;;;6.60;6.00;;;;;;;20.20;100.00;98568.06;109456;1253;66437;-67
2023/07/29 06:48:20;;;;;;;9.70;6.90;;;;;;;20.33;100.00;98566.55;109428;1253;73035;-67
2023/07/29 06:50:47;;;;;;;10.70;8.90;;;;;;;20.40;100.00;98567.86;109420;1253;61860;-58
2023/07/29 06:53:15;;;;;;;15.40;13.90;;;;;;;20.43;100.00;98575.08;109452;1253;58845;-60
2023/07/29 06:55:43;;;;;;;14.00;12.50;;;;;;;20.45;100.00;98569.73;109423;1254;161937;-63
2023/07/29 06:58:10;;;;;;;7.30;6.50;;;;;;;20.49;100.00;98573.13;109442;1253;66921;-69
2023/07/29 07:00:38;;;;;;;6.70;6.10;;;;;;;20.58;100.00;98572.24;109554;1254;71100;-63
2023/07/29 07:03:05;;;;;;;4.60;4.20;;;;;;;20.64;100.00;98577.70;109476;1254;60257;-61
2023/07/29 07:05:33;;;;;;;3.20;2.90;;;;;;;20.69;100.00;98577.10;109491;1254;60091;-63
2023/07/29 07:08:00;;;;;;;3.20;2.90;;;;;;;20.75;100.00;98579.60;109417;1253;74710;-68
2023/07/29 07:10:27;;;;;;;3.50;3.20;;;;;;;20.81;100.00;98578.73;109389;1253;67905;-68
2023/07/29 07:12:55;;;;;;;3.60;2.90;;;;;;;20.90;100.00;98575.02;109347;1252;72638;-69
2023/07/29 07:15:22;;;;;;;3.60;3.30;;;;;;;20.99;100.00;98572.05;109523;1253;60483;-67
2023/07/29 07:17:51;;;;;;;3.50;3.00;;;;;;;21.15;100.00;98572.58;109490;1253;60083;-72
2023/07/29 07:20:18;;;;;;;3.40;3.10;;;;;;;21.63;100.00;98577.69;109394;1252;74636;-70
2023/07/29 07:22:46;;;;;;;3.70;3.30;;;;;;;22.08;100.00;98572.18;109481;1253;66486;-71
2023/07/29 07:25:13;;;;;;;3.90;3.10;;;;;;;22.36;100.00;98571.70;109456;1253;72779;-70
2023/07/29 07:27:40;;;;;;;3.50;2.40;;;;;;;22.49;100.00;98570.38;109420;1253;58904;-70
2023/07/29 07:30:08;;;;;;;2.90;2.70;;;;;;;22.61;100.00;98568.67;109400;1253;63396;-68
2023/07/29 07:32:36;;;;;;;3.60;3.30;;;;;;;22.83;100.00;98566.70;109461;1253;73417;-67
2023/07/29 07:35:04;;;;;;;4.50;4.10;;;;;;;23.10;100.00;98565.45;109372;1252;66144;-69
2023/07/29 07:37:32;;;;;;;2.60;2.50;;;;;;;23.43;100.00;98565.79;109400;1252;72766;-69
2023/07/29 07:39:59;;;;;;;7.80;3.30;;;;;;;23.59;100.00;98566.52;109460;1253;59638;-68
2023/07/29 07:42:27;;;;;;;4.20;3.50;;;;;;;23.68;100.00;98572.79;109466;1253;59162;-68
2023/07/29 07:44:54;;;;;;;3.40;3.10;;;;;;;23.76;100.00;98569.02;109469;1253;75121;-69
2023/07/29 07:47:21;;;;;;;2.40;2.20;;;;;;;23.75;100.00;98570.26;109561;1253;67575;-68
2023/07/29 07:49:50;;;;;;;2.70;2.50;;;;;;;23.66;100.00;98572.31;109427;1254;71356;-69
2023/07/29 07:52:17;;;;;;;2.20;2.10;;;;;;;23.66;100.00;98572.89;109425;1253;60226;-67
2023/07/29 07:54:45;;;;;;;2.30;2.10;;;;;;;23.75;100.00;98570.70;109386;1255;59950;-69
2023/07/29 07:57:12;;;;;;;2.30;2.10;;;;;;;23.78;100.00;98573.23;109478;1252;74649;-70
2023/07/29 07:59:39;;;;;;;2.30;1.50;;;;;;;23.81;100.00;98570.73;109420;1253;66431;-68
2023/07/29 08:02:07;;;;;;;2.40;2.20;;;;;;;23.86;100.00;98568.92;109395;1253;71329;-69
2023/07/29 08:04:34;;;;;;;2.40;2.20;;;;;;;23.91;100.00;98571.67;109461;1256;60152;-70
2023/07/29 08:07:01;;;;;;;2.20;2.00;;;;;;;23.96;100.00;98569.36;109469;1253;60006;-71
2023/07/29 08:09:29;;;;;;;2.00;1.90;;;;;;;24.03;100.00;98567.32;109433;1253;73938;-68
2023/07/29 08:11:56;;;;;;;2.70;1.90;;;;;;;24.06;100.00;98567.05;109543;1252;67559;-69
2023/07/29 08:14:24;;;;;;;2.20;2.00;;;;;;;23.96;100.00;98564.03;109468;1254;72653;-69
2023/07/29 08:16:51;;;;;;;2.90;2.60;;;;;;;23.80;100.00;98567.04;109533;1253;60111;-68
2023/07/29 08:19:18;;;;;;;6.30;2.30;;;;;;;23.69;100.00;98565.72;109490;1253;58871;-67
2023/07/29 08:21:49;;;;;;;2.40;2.10;;;;;;;23.69;100.00;98564.20;109418;1253;72754;-69
2023/07/29 08:24:16;;;;;;;2.80;2.50;;;;;;;23.66;100.00;98561.88;109489;1252;67619;-68
2023/07/29 08:26:43;;;;;;;2.10;1.90;;;;;;;23.62;100.00;98560.59;109415;1254;72631;-68
2023/07/29 08:29:11;;;;;;;2.20;2.00;;;;;;;23.61;100.00;98558.15;109347;1254;60443;-68
2023/07/29 08:31:38;;;;;;;2.80;2.00;;;;;;;23.52;100.00;98558.55;109452;1254;60002;-69
2023/07/29 08:34:06;;;;;;;2.60;2.40;;;;;;;23.49;100.00;98558.45;109475;1253;73433;-68
2023/07/29 08:36:34;;;;;;;2.60;2.10;;;;;;;23.65;100.00;98554.77;109440;1253;67895;-68
2023/07/29 08:39:02;;;;;;;4.50;2.70;;;;;;;23.94;100.00;98556.77;109328;1257;72685;-69
2023/07/29 08:41:33;;;;;;;2.20;2.00;;;;;;;24.27;100.00;98554.50;109425;1254;59255;-68
2023/07/29 08:44:17;;;;;;;2.70;2.10;;;;;;;24.72;100.00;98549.69;109411;1258;59043;-68
2023/07/29 08:46:44;;;;;;;3.80;1.80;;;;;;;25.18;100.00;98548.02;109241;1253;74753;-69
2023/07/29 08:49:13;;;;;;;2.30;2.00;;;;;;;25.67;100.00;98544.51;109488;1253;67714;-69
2023/07/29 08:51:44;;;;;;;4.00;2.10;;;;;;;25.93;100.00;98546.33;109325;1253;72440;-68
2023/07/29 08:54:11;;;;;;;7.50;1.70;;;;;;;25.99;100.00;98547.39;109508;1253;59078;-68
2023/07/29 08:56:40;;;;;;;2.90;1.60;;;;;;;25.99;100.00;98545.92;109265;1253;59186;-69
2023/07/29 08:59:08;;;;;;;2.60;2.00;;;;;;;26.06;100.00;98539.77;109381;1253;74654;-68
2023/07/29 09:01:39;;;;;;;1.60;1.50;;;;;;;26.43;100.00;98532.73;109377;1253;66999;-69
2023/07/29 09:04:06;;;;;;;2.30;2.00;;;;;;;27.12;100.00;98526.93;109393;1254;71449;-69
2023/07/29 09:06:33;;;;;;;2.10;1.50;;;;;;;27.85;100.00;98521.61;109402;1254;60230;-69
2023/07/29 09:09:02;;;;;;;3.10;1.60;;;;;;;28.67;100.00;98519.73;109175;1252;60768;-68
2023/07/29 09:11:30;;;;;;;1.90;1.80;;;;;;;29.46;100.00;98515.39;109334;1253;74624;-68
2023/07/29 09:13:57;;;;;;;5.70;1.60;;;;;;;29.98;97.09;98520.15;109266;1253;68054;-68
2023/07/29 09:16:25;;;;;;;3.20;1.70;;;;;;;29.88;91.23;98518.41;109403;1256;72894;-69
2023/07/29 09:18:52;;;;;;;3.00;1.60;;;;;;;29.59;91.37;98516.91;109456;1254;60029;-69
2023/07/29 09:21:24;;;;;;;1.60;1.50;;;;;;;29.53;91.73;98519.02;109406;1253;59984;-70
2023/07/29 09:23:52;;;;;;;1.80;1.60;;;;;;;29.23;90.97;98526.60;109390;1254;74606;-68
2023/07/29 09:26:24;;;;;;;1.50;1.40;;;;;;;28.80;92.68;98528.77;109440;1253;67722;-69
2023/07/29 09:28:55;;;;;;;1.70;1.60;;;;;;;28.51;95.06;98532.69;109413;1254;73455;-68
2023/07/29 09:31:24;;;;;;;2.00;1.90;;;;;;;28.54;96.65;98531.35;109392;1252;58937;-68
2023/07/29 09:33:59;;;;;;;3.80;1.90;;;;;;;28.75;95.25;98530.89;109445;1252;58938;-69
2023/07/29 09:36:27;;;;;;;2.10;1.20;;;;;;;28.93;93.16;98527.36;109453;1254;73434;-69
2023/07/29 09:38:55;;;;;;;5.40;1.60;;;;;;;29.08;91.61;98528.89;109484;1252;66482;-68
2023/07/29 09:41:24;;;;;;;3.30;1.50;;;;;;;29.54;90.78;98530.61;109447;1254;72666;-67
2023/07/29 09:44:02;;;;;;;2.00;1.30;;;;;;;30.19;88.01;98534.96;109444;1254;60165;-68
2023/07/29 09:46:36;;;;;;;3.90;1.30;;;;;;;30.71;82.95;98531.74;109470;1253;58866;-70
2023/07/29 09:49:05;;;;;;;;;;;;;;;31.08;78.56;98532.16;109427;1257;73051;-69
2023/07/29 09:51:39;;;;;;;1.60;0.90;;;;;;;31.42;73.48;98531.45;109453;1253;67616;-70
2023/07/29 09:54:07;;;;;;;0.80;0.80;;;;;;;31.53;69.08;98529.49;109434;1256;72638;-69
2023/07/29 09:56:34;;;;;;;3.90;1.20;;;;;;;31.51;66.33;98532.20;109327;1254;60060;-68
2023/07/29 09:59:02;;;;;;;1.50;1.00;;;;;;;31.29;66.22;98540.77;109189;1253;59033;-69
2023/07/29 10:01:32;;;;;;;2.30;1.00;;;;;;;31.32;66.82;98539.33;109194;1253;74653;-69
2023/07/29 10:04:01;;;;;;;1.50;1.00;;;;;;;31.32;65.31;98535.61;109423;1254;67968;-68
2023/07/29 10:06:29;;;;;;;0.90;0.80;;;;;;;31.54;64.48;98537.20;109246;1257;72678;-69
2023/07/29 10:08:56;;;;;;;1.80;1.10;;;;;;;31.86;63.76;98533.17;109237;1259;60040;-67
2023/07/29 10:11:24;;;;;;;2.10;0.90;;;;;;;32.03;62.75;98535.02;109361;1253;60250;-68
2023/07/29 10:13:52;;;;;;;0.90;0.80;;;;;;;32.02;61.42;98534.40;109208;1258;74735;-68
2023/07/29 10:16:35;;;;;;;1.30;0.90;;;;;;;31.71;59.50;98531.80;109386;1254;67588;-68
2023/07/29 10:19:04;;;;;;;2.20;0.80;;;;;;;31.25;58.92;98541.23;109432;1254;71503;-68
2023/07/29 10:21:32;;;;;;;1.00;0.80;;;;;;;30.76;60.91;98537.69;109465;1253;59007;-68
2023/07/29 10:24:00;;;;;;;0.90;0.80;;;;;;;30.21;60.45;98541.11;109365;1254;59124;-67
2023/07/29 10:26:28;;;;;;;1.40;1.10;;;;;;;29.76;60.73;98542.91;109411;1254;74618;-70
2023/07/29 10:28:55;;;;;;;2.10;0.90;;;;;;;29.66;62.92;98543.25;109269;1253;67591;-68
2023/07/29 10:31:23;;;;;;;1.40;0.80;;;;;;;29.64;65.43;98535.52;109486;1254;71335;-68
2023/07/29 10:33:50;;;;;;;1.00;1.00;;;;;;;29.68;66.62;98538.64;109414;1254;58867;-68
2023/07/29 10:36:18;;;;;;;1.20;1.00;;;;;;;29.75;67.20;98539.77;109304;1253;60024;-68
2023/07/29 10:38:47;;;;;;;2.90;0.90;;;;;;;29.79;66.74;98540.09;109430;1254;74686;-69
2023/07/29 10:41:15;;;;;;;1.10;1.00;;;;;;;29.79;64.32;98541.80;109200;1254;66363;-67
2023/07/29 10:43:42;;;;;;;1.00;1.00;;;;;;;29.70;63.78;98540.77;109425;1254;72702;-68
2023/07/29 10:46:22;;;;;;;1.20;0.90;;;;;;;29.56;63.88;98542.66;109395;1254;60120;-67
2023/07/29 10:48:50;;;;;;;1.10;1.00;;;;;;;29.35;66.36;98543.83;109459;1253;60090;-68
2023/07/29 10:51:36;;;;;;;2.40;0.80;;;;;;;29.23;67.85;98536.85;109496;1253;74806;-68
2023/07/29 10:54:09;;;;;;;1.90;1.00;;;;;;;29.18;69.60;98533.33;109349;1253;67772;-68
2023/07/29 10:56:41;;;;;;;1.80;0.90;;;;;;;29.18;69.09;98537.05;109394;1254;71310;-66
2023/07/29 10:59:11;;;;;;;1.90;1.00;;;;;;;29.19;69.93;98537.65;109265;1254;58955;-67
2023/07/29 11:01:40;;;;;;;1.00;0.90;;;;;;;29.20;69.62;98538.67;109427;1254;60042;-68
2023/07/29 11:04:20;;;;;;;2.30;1.00;;;;;;;29.12;69.93;98540.02;109439;1253;74437;-68
2023/07/29 11:07:26;;;;;;;1.30;1.00;;;;;;;29.06;71.33;98535.19;109392;1254;67747;-69
2023/07/29 11:09:58;;;;;;;1.10;1.00;;;;;;;28.96;71.63;98534.67;109126;1254;72655;-67
2023/07/29 11:12:38;;;;;;;1.20;1.10;;;;;;;28.81;72.82;98535.54;109256;1254;60628;-68
2023/07/29 11:15:09;;;;;;;1.40;1.30;;;;;;;28.65;73.84;98537.26;109441;1254;60969;-69
2023/07/29 11:17:40;;;;;;;2.00;1.20;;;;;;;28.53;75.60;98539.91;109391;1253;74684;-69
2023/07/29 11:20:08;;;;;;;2.40;1.30;;;;;;;28.44;75.05;98539.76;109455;1253;67631;-68
2023/07/29 11:22:36;;;;;;;1.60;0.90;;;;;;;28.30;75.25;98544.23;109362;1254;71350;-69
2023/07/29 11:25:05;;;;;;;1.20;1.10;;;;;;;28.16;75.94;98543.71;109391;1254;59074;-68